createdAt,value
2018-07-30T00:00:55.815Z,98.40
2018-07-30T00:12:25.964Z,99.20
2018-07-30T00:14:58.072Z,99.80
2018-07-30T00:17:26.890Z,99.90
2018-07-30T00:19:57.317Z,99.90
2018-07-30T00:22:26.379Z,99.90
2018-07-30T00:24:56.756Z,99.90
2018-07-30T00:30:25.773Z,99.90
2018-07-30T00:42:26.901Z,99.90
2018-07-30T00:57:52.802Z,99.90
2018-07-30T01:09:28.666Z,99.90
2018-07-30T01:12:25.532Z,99.90
2018-07-30T01:17:57.225Z,99.90
2018-07-30T01:25:56.639Z,99.90
2018-07-30T01:28:26.592Z,99.90
2018-07-30T01:30:57.217Z,99.90
2018-07-30T01:33:25.959Z,99.90
2018-07-30T01:41:54.953Z,99.90
2018-07-30T01:44:27.658Z,99.90
2018-07-30T01:46:56.510Z,99.90
2018-07-30T01:49:26.570Z,99.90
2018-07-30T01:58:01.803Z,99.90
2018-07-30T02:03:27.183Z,99.90
2018-07-30T02:18:26.291Z,99.90
2018-07-30T02:20:56.684Z,99.90
2018-07-30T02:23:26.451Z,99.90
2018-07-30T02:25:56.417Z,99.90
2018-07-30T02:43:27.251Z,99.90
2018-07-30T02:46:27.094Z,99.90
2018-07-30T02:48:56.518Z,99.90
2018-07-30T02:51:26.761Z,99.90
2018-07-30T02:53:56.922Z,99.90
2018-07-30T03:01:26.012Z,99.90
2018-07-30T03:33:56.927Z,99.90
2018-07-30T03:36:25.912Z,99.90
2018-07-30T03:48:54.881Z,99.90
2018-07-30T04:00:26.774Z,99.90
2018-07-30T04:02:56.946Z,99.90
2018-07-30T04:05:26.457Z,99.90
2018-07-30T04:07:56.760Z,99.90
2018-07-30T04:19:56.495Z,99.90
2018-07-30T04:42:27.371Z,99.90
2018-07-30T04:44:56.421Z,99.90
2018-07-30T04:48:19.724Z,99.90
2018-07-30T04:50:56.356Z,99.90
2018-07-30T04:56:17.909Z,99.90
2018-07-30T04:58:47.235Z,99.90
2018-07-30T05:14:47.791Z,99.90
2018-07-30T05:17:16.426Z,99.90
2018-07-30T05:19:45.139Z,99.90
2018-07-30T05:22:13.621Z,99.90
2018-07-30T05:25:20.481Z,99.90
2018-07-30T05:27:55.038Z,99.90
2018-07-30T05:30:23.452Z,99.90
2018-07-30T05:32:56.873Z,99.90
2018-07-30T05:35:25.696Z,99.90
2018-07-30T05:37:55.356Z,99.90
2018-07-30T05:40:27.306Z,99.90
2018-07-30T05:42:55.798Z,99.90
2018-07-30T05:45:24.646Z,99.90
2018-07-30T05:47:53.284Z,99.90
2018-07-30T05:50:21.757Z,99.90
2018-07-30T05:52:53.521Z,99.90
2018-07-30T05:55:22.045Z,99.90
2018-07-30T05:57:50.560Z,99.90
2018-07-30T06:00:19.374Z,99.90
2018-07-30T06:02:48.349Z,99.90
2018-07-30T06:05:17.869Z,99.90
2018-07-30T06:07:46.845Z,99.90
2018-07-30T06:10:15.303Z,99.90
2018-07-30T06:12:43.784Z,99.90
2018-07-30T06:15:12.250Z,99.90
2018-07-30T06:17:40.689Z,99.90
2018-07-30T06:20:20.783Z,99.90
2018-07-30T06:22:49.880Z,99.90
2018-07-30T06:25:18.313Z,99.90
2018-07-30T06:27:46.792Z,99.90
2018-07-30T06:30:15.468Z,99.90
2018-07-30T06:32:46.543Z,99.90
2018-07-30T06:35:15.029Z,99.90
2018-07-30T06:37:43.477Z,99.90
2018-07-30T06:40:12.511Z,99.90
2018-07-30T06:42:41.385Z,99.90
2018-07-30T06:45:09.886Z,99.90
2018-07-30T06:47:41.626Z,99.90
2018-07-30T06:50:12.284Z,99.90
2018-07-30T06:52:41.197Z,99.90
2018-07-30T06:55:11.280Z,99.90
2018-07-30T06:57:47.347Z,99.90
2018-07-30T07:00:18.402Z,99.90
2018-07-30T07:02:48.229Z,99.90
2018-07-30T07:05:17.016Z,99.90
2018-07-30T07:07:45.713Z,99.90
2018-07-30T07:10:14.427Z,99.90
2018-07-30T07:12:43.157Z,99.90
2018-07-30T07:15:13.317Z,99.90
2018-07-30T07:17:42.671Z,99.90
2018-07-30T07:20:12.778Z,99.90
2018-07-30T07:22:44.634Z,99.90
2018-07-30T07:25:14.841Z,99.90
2018-07-30T07:27:43.469Z,99.90
2018-07-30T07:30:12.764Z,99.90
2018-07-30T07:32:42.567Z,99.90
2018-07-30T07:35:11.412Z,99.70
2018-07-30T07:37:40.939Z,99.30
2018-07-30T07:40:10.496Z,98.40
2018-07-30T07:42:39.323Z,98.30
2018-07-30T07:45:08.411Z,98.30
2018-07-30T07:47:38.369Z,98.00
2018-07-30T07:50:08.041Z,98.50
2018-07-30T07:52:36.878Z,97.80
2018-07-30T07:55:05.945Z,97.80
2018-07-30T07:57:34.468Z,95.90
2018-07-30T08:00:05.465Z,95.80
2018-07-30T08:02:34.448Z,94.90
2018-07-30T08:05:02.957Z,94.20
2018-07-30T08:07:31.897Z,94.00
2018-07-30T08:10:00.318Z,93.10
2018-07-30T08:12:29.017Z,92.90
2018-07-30T08:14:57.623Z,91.80
2018-07-30T08:17:26.510Z,91.90
2018-07-30T08:19:55.145Z,91.70
2018-07-30T08:22:23.863Z,90.90
2018-07-30T08:24:52.536Z,90.00
2018-07-30T08:27:21.238Z,89.90
2018-07-30T08:29:49.980Z,89.50
2018-07-30T08:32:18.525Z,89.10
2018-07-30T08:34:47.261Z,88.50
2018-07-30T08:37:25.756Z,89.80
2018-07-30T08:39:54.245Z,90.20
2018-07-30T08:42:22.968Z,89.70
2018-07-30T08:44:51.721Z,89.10
2018-07-30T08:47:20.268Z,88.50
2018-07-30T08:49:48.735Z,87.60
2018-07-30T08:52:17.412Z,87.90
2018-07-30T08:54:46.382Z,87.30
2018-07-30T08:57:15.135Z,84.60
2018-07-30T08:59:43.589Z,87.30
2018-07-30T09:02:12.209Z,86.10
2018-07-30T09:04:40.728Z,84.20
2018-07-30T09:07:09.497Z,84.50
2018-07-30T09:09:38.405Z,83.80
2018-07-30T09:12:06.889Z,83.50
2018-07-30T09:14:35.432Z,83.80
2018-07-30T09:17:03.943Z,85.40
2018-07-30T09:19:32.853Z,83.20
2018-07-30T09:22:01.465Z,84.40
2018-07-30T09:24:30.055Z,82.40
2018-07-30T09:26:58.742Z,82.60
2018-07-30T09:29:27.189Z,81.90
2018-07-30T09:31:55.771Z,80.60
2018-07-30T09:34:24.330Z,82.10
2018-07-30T09:36:52.834Z,83.30
2018-07-30T09:39:21.546Z,80.10
2018-07-30T09:41:50.616Z,80.20
2018-07-30T09:44:19.250Z,79.80
2018-07-30T09:46:48.155Z,80.20
2018-07-30T09:49:16.814Z,78.80
2018-07-30T09:51:45.958Z,80.70
2018-07-30T09:54:14.735Z,79.80
2018-07-30T09:56:43.280Z,80.80
2018-07-30T09:59:12.077Z,78.50
2018-07-30T10:01:40.877Z,78.20
2018-07-30T10:04:09.445Z,78.10
2018-07-30T10:06:38.011Z,78.70
2018-07-30T10:09:09.784Z,78.10
2018-07-30T10:11:39.041Z,79.30
2018-07-30T10:14:07.829Z,79.00
2018-07-30T10:16:36.260Z,77.50
2018-07-30T10:19:04.807Z,77.00
2018-07-30T10:21:33.254Z,75.40
2018-07-30T10:24:01.651Z,75.00
2018-07-30T10:26:30.104Z,73.70
2018-07-30T10:28:58.528Z,76.00
2018-07-30T10:31:26.948Z,75.20
2018-07-30T10:33:55.388Z,74.10
2018-07-30T10:36:24.156Z,76.10
2018-07-30T10:38:52.785Z,73.90
2018-07-30T10:41:21.281Z,72.70
2018-07-30T10:43:49.837Z,73.90
2018-07-30T10:46:18.794Z,72.70
2018-07-30T10:48:47.754Z,73.40
2018-07-30T10:51:16.233Z,75.00
2018-07-30T10:53:44.668Z,74.70
2018-07-30T10:56:13.246Z,72.70
2018-07-30T10:58:41.725Z,75.60
2018-07-30T11:01:10.207Z,75.20
2018-07-30T11:03:38.734Z,73.10
2018-07-30T11:06:07.136Z,72.70
2018-07-30T11:08:35.589Z,70.40
2018-07-30T11:11:04.125Z,69.60
2018-07-30T11:13:32.563Z,69.70
2018-07-30T11:16:00.992Z,68.30
2018-07-30T11:18:29.368Z,67.40
2018-07-30T11:21:04.371Z,71.10
2018-07-30T11:23:32.852Z,68.90
2018-07-30T11:26:01.794Z,68.10
2018-07-30T11:28:30.390Z,70.70
2018-07-30T11:30:59.291Z,67.60
2018-07-30T11:33:27.929Z,69.70
2018-07-30T11:35:56.672Z,70.70
2018-07-30T11:38:25.590Z,68.60
2018-07-30T11:40:54.395Z,68.40
2018-07-30T11:43:24.297Z,70.80
2018-07-30T11:45:53.885Z,69.20
2018-07-30T11:48:22.608Z,69.20
2018-07-30T11:50:51.329Z,69.20
2018-07-30T11:53:28.091Z,68.40
2018-07-30T11:55:56.947Z,70.00
2018-07-30T11:58:25.928Z,68.90
2018-07-30T12:00:54.655Z,67.40
2018-07-30T12:03:34.454Z,67.20
2018-07-30T12:06:03.260Z,69.60
2018-07-30T12:08:31.935Z,68.60
2018-07-30T12:11:04.303Z,67.10
2018-07-30T12:13:32.975Z,66.20
2018-07-30T12:16:01.733Z,64.80
2018-07-30T12:18:31.467Z,65.00
2018-07-30T12:21:03.406Z,64.90
2018-07-30T12:23:36.183Z,64.00
2018-07-30T12:26:05.225Z,61.20
2018-07-30T12:28:37.507Z,61.20
2018-07-30T12:31:08.851Z,63.30
2018-07-30T12:33:37.970Z,61.50
2018-07-30T12:36:07.904Z,60.10
2018-07-30T12:38:36.533Z,63.10
2018-07-30T12:41:05.211Z,60.30
2018-07-30T12:43:34.003Z,61.20
2018-07-30T12:46:02.409Z,60.60
2018-07-30T12:48:30.817Z,59.70
2018-07-30T12:50:59.474Z,59.30
2018-07-30T12:53:28.070Z,58.30
2018-07-30T12:55:56.496Z,58.70
2018-07-30T12:58:25.017Z,56.70
2018-07-30T13:00:53.496Z,58.60
2018-07-30T13:03:21.943Z,59.40
2018-07-30T13:05:51.303Z,57.10
2018-07-30T13:08:20.146Z,58.10
2018-07-30T13:10:48.687Z,59.30
2018-07-30T13:13:17.129Z,59.20
2018-07-30T13:15:45.571Z,58.30
2018-07-30T13:18:15.049Z,59.30
2018-07-30T13:20:43.828Z,58.70
2018-07-30T13:23:13.745Z,58.90
2018-07-30T13:25:42.768Z,59.40
2018-07-30T13:28:11.136Z,59.80
2018-07-30T13:30:39.569Z,60.60
2018-07-30T13:33:08.032Z,59.90
2018-07-30T13:35:36.432Z,60.60
2018-07-30T13:38:05.471Z,59.30
2018-07-30T13:40:34.586Z,58.10
2018-07-30T13:43:03.474Z,58.70
2018-07-30T13:45:31.917Z,58.40
2018-07-30T13:48:00.333Z,58.60
2018-07-30T13:50:29.217Z,58.50
2018-07-30T13:52:57.645Z,59.80
2018-07-30T13:55:26.054Z,58.60
2018-07-30T13:57:54.464Z,58.30
2018-07-30T14:00:22.933Z,59.90
2018-07-30T14:02:51.330Z,60.50
2018-07-30T14:05:19.788Z,58.70
2018-07-30T14:07:48.289Z,60.00
2018-07-30T14:10:16.699Z,58.80
2018-07-30T14:12:45.154Z,60.10
2018-07-30T14:15:13.729Z,60.10
2018-07-30T14:17:42.313Z,59.50
2018-07-30T14:20:11.296Z,60.40
2018-07-30T14:22:39.871Z,58.50
2018-07-30T14:25:08.465Z,58.70
2018-07-30T14:27:36.912Z,60.20
2018-07-30T14:30:07.102Z,59.20
2018-07-30T14:32:35.865Z,59.80
2018-07-30T14:35:04.485Z,62.00
2018-07-30T14:37:33.321Z,63.00
2018-07-30T14:40:06.825Z,61.50
2018-07-30T14:42:35.501Z,59.90
2018-07-30T14:45:04.800Z,59.70
2018-07-30T14:47:33.229Z,59.80
2018-07-30T14:50:01.621Z,60.60
2018-07-30T14:52:30.257Z,60.10
2018-07-30T14:54:58.712Z,60.10
2018-07-30T14:57:27.176Z,59.80
2018-07-30T14:59:56.182Z,60.60
2018-07-30T15:02:24.716Z,59.20
2018-07-30T15:04:53.184Z,58.70
2018-07-30T15:07:21.612Z,59.70
2018-07-30T15:09:50.565Z,62.30
2018-07-30T15:12:19.029Z,61.20
2018-07-30T15:14:47.608Z,60.30
2018-07-30T15:17:16.325Z,61.40
2018-07-30T15:19:44.764Z,60.70
2018-07-30T15:22:13.516Z,60.40
2018-07-30T15:24:42.338Z,61.10
2018-07-30T15:27:11.162Z,62.70
2018-07-30T15:29:39.570Z,62.60
2018-07-30T15:32:08.061Z,61.20
2018-07-30T15:34:36.462Z,61.20
2018-07-30T15:37:04.874Z,62.40
2018-07-30T15:39:33.289Z,63.60
2018-07-30T15:42:01.728Z,62.80
2018-07-30T15:44:30.161Z,62.20
2018-07-30T15:46:58.969Z,62.40
2018-07-30T15:49:27.370Z,61.80
2018-07-30T15:51:55.988Z,61.90
2018-07-30T15:54:24.379Z,60.40
2018-07-30T15:56:52.788Z,60.40
2018-07-30T15:59:21.596Z,62.60
2018-07-30T16:01:50.360Z,60.50
2018-07-30T16:04:19.297Z,59.50
2018-07-30T16:06:47.924Z,60.10
2018-07-30T16:09:16.361Z,59.90
2018-07-30T16:11:44.779Z,60.40
2018-07-30T16:14:13.705Z,59.80
2018-07-30T16:16:43.165Z,60.70
2018-07-30T16:19:11.584Z,62.30
2018-07-30T16:21:40.101Z,61.90
2018-07-30T16:24:08.696Z,62.50
2018-07-30T16:26:37.108Z,60.60
2018-07-30T16:29:05.581Z,61.40
2018-07-30T16:31:34.382Z,61.50
2018-07-30T16:34:02.796Z,62.10
2018-07-30T16:36:31.221Z,61.90
2018-07-30T16:38:59.616Z,62.30
2018-07-30T16:41:28.045Z,62.30
2018-07-30T16:43:56.989Z,62.20
2018-07-30T16:46:25.493Z,62.80
2018-07-30T16:48:54.101Z,63.40
2018-07-30T16:51:22.726Z,63.00
2018-07-30T16:53:51.347Z,63.50
2018-07-30T16:56:20.016Z,61.70
2018-07-30T16:58:48.747Z,62.10
2018-07-30T17:01:17.620Z,62.40
2018-07-30T17:03:46.107Z,62.80
2018-07-30T17:06:15.025Z,62.30
2018-07-30T17:08:43.565Z,62.00
2018-07-30T17:11:12.682Z,62.00
2018-07-30T17:13:43.500Z,62.60
2018-07-30T17:16:11.893Z,62.60
2018-07-30T17:18:41.029Z,63.40
2018-07-30T17:21:09.509Z,62.80
2018-07-30T17:23:38.017Z,62.60
2018-07-30T17:26:06.637Z,63.10
2018-07-30T17:28:35.280Z,64.20
2018-07-30T17:31:03.777Z,63.60
2018-07-30T17:33:32.247Z,63.40
2018-07-30T17:36:01.405Z,64.10
2018-07-30T17:38:30.116Z,65.10
2018-07-30T17:40:58.917Z,65.60
2018-07-30T17:43:27.661Z,64.60
2018-07-30T17:45:56.480Z,64.40
2018-07-30T17:48:24.949Z,65.00
2018-07-30T17:50:53.643Z,63.60
2018-07-30T17:53:22.139Z,63.70
2018-07-30T17:55:50.537Z,64.50
2018-07-30T17:58:18.940Z,65.30
2018-07-30T18:00:47.586Z,65.30
2018-07-30T18:03:16.254Z,65.80
2018-07-30T18:05:44.971Z,65.10
2018-07-30T18:08:13.649Z,66.00
2018-07-30T18:10:42.177Z,65.90
2018-07-30T18:13:10.913Z,65.80
2018-07-30T18:15:39.706Z,66.50
2018-07-30T18:18:08.500Z,67.30
2018-07-30T18:20:36.997Z,67.80
2018-07-30T18:23:05.745Z,68.60
2018-07-30T18:25:34.847Z,68.20
2018-07-30T18:28:03.974Z,68.40
2018-07-30T18:30:55.852Z,69.00
2018-07-30T18:33:26.054Z,69.20
2018-07-30T18:35:54.912Z,69.80
2018-07-30T18:38:23.385Z,70.40
2018-07-30T18:40:51.885Z,70.60
2018-07-30T18:43:20.737Z,70.40
2018-07-30T18:45:49.513Z,70.50
2018-07-30T18:48:17.941Z,70.70
2018-07-30T18:50:47.389Z,71.60
2018-07-30T18:53:15.905Z,72.20
2018-07-30T18:55:44.326Z,73.10
2018-07-30T18:58:13.028Z,72.30
2018-07-30T19:00:42.038Z,73.20
2018-07-30T19:03:11.954Z,73.10
2018-07-30T19:05:40.477Z,73.70
2018-07-30T19:08:09.211Z,74.10
2018-07-30T19:10:37.909Z,76.80
2018-07-30T19:13:06.746Z,76.00
2018-07-30T19:24:56.626Z,75.80
2018-07-30T19:27:28.297Z,75.90
2018-07-30T19:29:57.040Z,78.40
2018-07-30T19:32:25.766Z,79.60
2018-07-30T19:34:57.969Z,79.80
2018-07-30T19:37:29.385Z,79.90
2018-07-30T19:43:13.853Z,81.10
2018-07-30T19:52:12.784Z,81.50
2018-07-30T19:57:55.073Z,82.60
2018-07-30T20:18:31.293Z,85.10
2018-07-30T20:21:03.637Z,86.00
2018-07-30T20:23:32.992Z,85.90
2018-07-30T20:26:01.650Z,86.90
2018-07-30T20:28:31.340Z,87.50
2018-07-30T20:31:00.145Z,88.10
2018-07-30T20:33:29.724Z,88.80
2018-07-30T20:35:58.621Z,89.10
2018-07-30T20:38:27.172Z,89.50
2018-07-30T20:41:06.128Z,88.80
2018-07-30T20:43:34.926Z,89.30
2018-07-30T20:46:04.055Z,89.10
2018-07-30T20:48:32.746Z,89.00
2018-07-30T20:51:01.703Z,89.40
2018-07-30T20:53:30.253Z,90.20
2018-07-30T20:55:59.350Z,90.30
2018-07-30T20:58:28.265Z,90.50
2018-07-30T21:00:58.620Z,90.70
2018-07-30T21:03:27.679Z,90.90
2018-07-30T21:05:56.450Z,91.20
2018-07-30T21:08:25.631Z,91.30
2018-07-30T21:11:09.026Z,91.70
2018-07-30T21:13:38.232Z,91.90
2018-07-30T21:16:07.559Z,92.30
2018-07-30T21:18:37.423Z,93.10
2018-07-30T21:24:21.149Z,93.80
2018-07-30T21:26:50.357Z,94.20
2018-07-30T21:32:11.589Z,93.70
2018-07-30T21:34:46.173Z,94.00
2018-07-30T21:37:33.245Z,94.40
2018-07-30T21:40:02.096Z,94.80
2018-07-30T21:42:30.920Z,94.90
2018-07-30T21:44:59.676Z,95.10
2018-07-30T21:47:34.450Z,95.50
2018-07-30T21:50:03.766Z,96.10
2018-07-30T21:52:33.818Z,96.60
2018-07-30T21:55:02.645Z,96.70
2018-07-30T21:57:31.389Z,97.30
2018-07-30T22:00:00.158Z,97.30
2018-07-30T22:02:49.422Z,98.00
2018-07-30T22:08:13.370Z,98.30
2018-07-30T22:10:45.141Z,98.60
2018-07-30T22:13:14.427Z,98.60
2018-07-30T22:15:44.091Z,98.80
2018-07-30T22:18:14.880Z,98.60
2018-07-30T22:20:45.418Z,99.10
2018-07-30T22:23:14.957Z,99.20
2018-07-30T22:25:45.209Z,99.30
2018-07-30T22:28:13.952Z,99.90
2018-07-30T22:30:44.557Z,99.90
2018-07-30T22:33:14.414Z,99.90
2018-07-30T22:35:45.896Z,99.90
2018-07-30T22:38:14.788Z,99.90
2018-07-30T22:40:44.310Z,99.90
2018-07-30T22:43:14.870Z,99.90
2018-07-30T22:45:45.036Z,99.90
2018-07-30T22:48:14.694Z,99.90
2018-07-30T22:50:57.120Z,99.90
2018-07-30T22:53:27.987Z,99.90
2018-07-30T22:55:57.633Z,99.90
2018-07-30T22:58:37.367Z,99.90
2018-07-30T23:01:09.568Z,99.90
2018-07-30T23:03:42.433Z,99.90
2018-07-30T23:06:14.698Z,99.90
2018-07-30T23:08:44.329Z,99.90
2018-07-30T23:11:15.473Z,99.90
2018-07-30T23:13:47.174Z,99.90
2018-07-30T23:16:36.507Z,99.90
2018-07-30T23:19:09.741Z,99.90
2018-07-30T23:21:41.854Z,99.90
2018-07-30T23:24:10.965Z,99.90
2018-07-30T23:26:39.667Z,99.90
2018-07-30T23:29:10.259Z,99.90
2018-07-30T23:31:41.001Z,99.90
2018-07-30T23:34:11.746Z,99.90
2018-07-30T23:36:40.567Z,99.90
2018-07-30T23:39:11.821Z,99.90
2018-07-30T23:41:40.497Z,99.90
2018-07-30T23:44:14.277Z,99.90
2018-07-30T23:46:44.414Z,99.90
2018-07-30T23:49:14.823Z,99.90
2018-07-30T23:51:44.335Z,99.90
2018-07-30T23:54:16.771Z,99.90
2018-07-30T23:56:45.654Z,99.90
2018-07-30T23:59:14.485Z,99.90
